Time;durP1;ratioP1;P1;durP2;ratioP2;P2;SDS_P1;SDS_P2;PMS_P1;PMS_P2;Temp;Humidity;BMP_temperature;BMP_pressure;BME280_temperature;BME280_humidity;BME280_pressure;Samples;Min_cycle;Max_cycle;Signal;HPM_P1;HPM_P2
2023/10/06 00:01:21;;;;;;;8.40;4.10;;;;;;;11.68;79.08;97438.90;108836;1272;22589;-77
2023/10/06 00:03:57;;;;;;;8.00;3.80;;;;;;;11.70;79.15;97442.41;108785;1272;87293;-77
2023/10/06 00:06:31;;;;;;;12.40;4.70;;;;;;;11.69;79.38;97449.36;108867;1265;26052;-77
2023/10/06 00:09:06;;;;;;;8.50;4.00;;;;;;;11.69;79.65;97449.95;108850;1272;22879;-77
2023/10/06 00:11:40;;;;;;;9.30;4.30;;;;;;;11.67;79.89;97442.93;108847;1266;22553;-77
2023/10/06 00:14:19;;;;;;;10.50;4.90;;;;;;;11.68;79.95;97443.41;108738;1272;72190;-77
2023/10/06 00:16:57;;;;;;;9.70;4.40;;;;;;;11.69;80.05;97448.20;108798;1266;23163;-77
2023/10/06 00:19:31;;;;;;;7.40;4.20;;;;;;;11.73;80.33;97445.96;108829;1272;22905;-77
2023/10/06 00:22:10;;;;;;;8.80;4.60;;;;;;;11.75;80.34;97443.89;108839;1266;22612;-77
2023/10/06 00:24:44;;;;;;;11.90;4.20;;;;;;;11.75;80.46;97443.95;108790;1272;51403;-77
2023/10/06 00:27:23;;;;;;;9.30;4.30;;;;;;;11.78;80.63;97444.06;108877;1266;22857;-77
2023/10/06 00:30:00;;;;;;;;;;;;;;;11.78;80.78;97439.33;108913;1272;24314;-77
2023/10/06 00:32:32;;;;;;;9.40;4.40;;;;;;;11.78;80.83;97438.36;108828;1272;25381;-77
2023/10/06 00:35:11;;;;;;;8.30;4.10;;;;;;;11.76;80.89;97433.16;108820;1272;56644;-77
2023/10/06 00:37:44;;;;;;;9.20;3.70;;;;;;;11.75;81.08;97435.17;108838;1272;22616;-77
2023/10/06 00:40:20;;;;;;;8.00;4.10;;;;;;;11.71;81.03;97435.61;108889;1272;22528;-77
2023/10/06 00:42:59;;;;;;;8.10;4.10;;;;;;;11.67;81.19;97429.64;108877;1269;22547;-77
2023/10/06 00:45:30;;;;;;;11.60;4.60;;;;;;;11.66;81.44;97430.75;108818;1272;72751;-77
2023/10/06 00:48:08;;;;;;;10.00;3.80;;;;;;;11.64;81.54;97430.96;108880;1266;22503;-77
2023/10/06 00:50:40;;;;;;;9.50;4.00;;;;;;;11.62;81.61;97431.39;108832;1272;22553;-77
2023/10/06 00:53:13;;;;;;;8.80;4.20;;;;;;;11.61;81.76;97433.20;108831;1267;23220;-77
2023/10/06 00:55:45;;;;;;;8.40;3.30;;;;;;;11.59;81.80;97440.48;108887;1272;22556;-77
2023/10/06 00:58:20;;;;;;;8.30;4.20;;;;;;;11.61;81.98;97445.05;108840;1272;24287;-77
2023/10/06 01:00:52;;;;;;;9.60;4.30;;;;;;;11.62;82.09;97450.19;108848;1272;22508;-77
2023/10/06 01:03:25;;;;;;;9.20;4.20;;;;;;;11.63;82.15;97451.15;108789;1266;66813;-77
2023/10/06 01:06:07;;;;;;;7.40;3.80;;;;;;;11.66;82.26;97452.42;108898;1272;24200;-77
2023/10/06 01:08:39;;;;;;;9.10;4.10;;;;;;;11.70;82.43;97448.20;108896;1272;22515;-77
2023/10/06 01:11:17;;;;;;;8.70;4.30;;;;;;;11.69;82.40;97446.02;108855;1272;22509;-77
2023/10/06 01:13:56;;;;;;;9.70;4.20;;;;;;;11.68;82.53;97445.54;108822;1272;49860;-77
2023/10/06 01:16:34;;;;;;;7.90;4.00;;;;;;;11.66;82.68;97443.13;108877;1253;22640;-77
2023/10/06 01:19:25;;;;;;;7.50;3.70;;;;;;;11.67;82.75;97450.41;108799;1272;23033;-77
2023/10/06 01:22:07;;;;;;;8.60;3.70;;;;;;;11.67;82.62;97453.06;108809;1266;22515;-77
2023/10/06 01:24:40;;;;;;;9.00;4.30;;;;;;;11.69;82.87;97455.64;108814;1272;42211;-77
2023/10/06 01:27:14;;;;;;;7.00;3.80;;;;;;;11.69;83.01;97454.21;108866;1269;22519;-77
2023/10/06 01:30:09;;;;;;;7.80;3.90;;;;;;;11.68;83.04;97457.54;108858;1266;24194;-77
2023/10/06 01:32:45;;;;;;;7.80;4.00;;;;;;;11.68;82.97;97458.49;108893;1272;22506;-77
2023/10/06 01:35:16;;;;;;;8.60;4.40;;;;;;;11.68;83.06;97460.13;108799;1270;125035;-77
2023/10/06 01:37:49;;;;;;;12.60;5.20;;;;;;;11.68;82.86;97465.82;108872;1272;22512;-77
2023/10/06 01:40:43;;;;;;;11.00;5.30;;;;;;;11.67;82.96;97465.34;108888;1266;22522;-77
2023/10/06 01:43:22;;;;;;;10.40;5.20;;;;;;;11.65;83.06;97466.55;108837;1266;61430;-78
2023/10/06 01:45:59;;;;;;;10.10;5.20;;;;;;;11.60;83.30;97466.08;108838;1272;22834;-77
2023/10/06 01:48:31;;;;;;;10.50;5.40;;;;;;;11.56;83.42;97468.15;108829;1272;22708;-78
2023/10/06 01:51:13;;;;;;;9.20;4.80;;;;;;;11.53;83.60;97467.96;108844;1269;25441;-77
2023/10/06 01:53:45;;;;;;;9.70;5.40;;;;;;;11.50;83.85;97475.23;108836;1272;42524;-77
2023/10/06 01:56:22;;;;;;;10.80;5.50;;;;;;;11.48;84.12;97476.30;108859;1266;26962;-77
2023/10/06 01:58:54;;;;;;;9.90;5.10;;;;;;;11.46;84.23;97475.88;108792;1272;22533;-77
2023/10/06 02:01:28;;;;;;;9.40;5.40;;;;;;;11.45;84.38;97477.16;108859;1269;22786;-77
2023/10/06 02:03:59;;;;;;;11.90;5.10;;;;;;;11.41;84.52;97473.73;108825;1272;64843;-77
2023/10/06 02:06:30;;;;;;;10.40;5.10;;;;;;;11.45;84.67;97477.41;108874;1272;22516;-77
2023/10/06 02:09:14;;;;;;;9.80;5.30;;;;;;;11.44;84.75;97482.35;108877;1269;24412;-77
2023/10/06 02:11:49;;;;;;;8.90;4.80;;;;;;;11.43;85.02;97487.19;108813;1272;22658;-77
2023/10/06 02:14:21;;;;;;;10.90;5.70;;;;;;;11.44;85.02;97488.15;108850;1272;41948;-77
2023/10/06 02:16:55;;;;;;;12.30;5.40;;;;;;;11.42;85.09;97492.88;108871;1264;22562;-77
2023/10/06 02:19:32;;;;;;;11.60;5.80;;;;;;;11.42;85.13;97494.09;108839;1269;22507;-77
2023/10/06 02:22:06;;;;;;;11.40;6.30;;;;;;;11.40;85.33;97490.98;108800;1272;23864;-77
2023/10/06 02:24:38;;;;;;;12.50;6.10;;;;;;;11.39;85.45;97489.23;108844;1272;54606;-77
2023/10/06 02:27:15;;;;;;;11.10;6.60;;;;;;;11.36;85.68;97492.63;108852;1266;22501;-77
2023/10/06 02:29:49;;;;;;;14.10;6.70;;;;;;;11.36;85.92;97490.81;108882;1269;23308;-77
2023/10/06 02:32:21;;;;;;;16.40;8.40;;;;;;;11.32;86.03;97487.30;108838;1272;22532;-77
2023/10/06 02:34:55;;;;;;;14.70;7.30;;;;;;;11.34;86.09;97489.86;108811;1267;58920;-77
2023/10/06 02:37:28;;;;;;;13.30;7.50;;;;;;;11.33;86.07;97495.27;108803;1267;26003;-77
2023/10/06 02:40:00;;;;;;;13.80;7.80;;;;;;;11.33;86.13;97494.31;108842;1272;22511;-77
2023/10/06 02:42:33;;;;;;;13.00;7.00;;;;;;;11.30;86.22;97493.10;108769;1266;24219;-77
2023/10/06 02:45:06;;;;;;;12.30;7.70;;;;;;;11.28;86.29;97496.81;108721;1272;62875;-77
2023/10/06 02:47:40;;;;;;;14.50;8.20;;;;;;;11.27;86.34;97503.66;108780;1272;22515;-77
2023/10/06 02:50:19;;;;;;;13.90;8.20;;;;;;;11.26;86.47;97500.84;108892;1266;22518;-77
2023/10/06 02:52:53;;;;;;;12.10;7.20;;;;;;;11.26;86.60;97508.89;108825;1266;22549;-77
2023/10/06 02:55:32;;;;;;;15.60;8.30;;;;;;;11.26;86.71;97508.69;108757;1271;81164;-77
2023/10/06 02:58:04;;;;;;;14.50;8.20;;;;;;;11.26;86.66;97511.75;108792;1266;22558;-77
2023/10/06 03:00:36;;;;;;;17.60;8.20;;;;;;;11.25;86.61;97508.88;108815;1272;22504;-77
2023/10/06 03:03:18;;;;;;;12.00;7.80;;;;;;;11.26;86.69;97507.09;108866;1272;22512;-77
2023/10/06 03:06:07;;;;;;;13.30;7.10;;;;;;;11.24;86.67;97504.52;108893;1272;22543;-77
2023/10/06 03:08:41;;;;;;;13.80;8.10;;;;;;;11.22;86.68;97502.13;108912;1272;22529;-77
2023/10/06 03:11:22;;;;;;;15.90;9.00;;;;;;;11.19;86.69;97504.89;108813;1272;25736;-77
2023/10/06 03:13:58;;;;;;;15.10;7.80;;;;;;;11.15;86.74;97507.33;108842;1272;35826;-77
2023/10/06 03:16:32;;;;;;;11.80;8.00;;;;;;;11.13;86.73;97502.80;108862;1266;22514;-77
2023/10/06 03:19:05;;;;;;;16.80;8.90;;;;;;;11.10;86.75;97502.77;108865;1272;22549;-77
2023/10/06 03:21:45;;;;;;;14.60;8.30;;;;;;;11.07;86.81;97503.40;108859;1265;22565;-77
2023/10/06 03:24:20;;;;;;;13.90;7.40;;;;;;;11.05;86.74;97501.59;108844;1272;43928;-77
2023/10/06 03:27:04;;;;;;;12.10;7.50;;;;;;;11.00;86.76;97500.09;108828;1272;22540;-77
2023/10/06 03:29:46;;;;;;;15.80;7.70;;;;;;;10.97;86.91;97506.49;108824;1266;22744;-77
2023/10/06 03:35:21;;;;;;;17.00;8.30;;;;;;;10.91;87.00;97509.59;108860;1266;37016;-77
2023/10/06 03:38:08;;;;;;;16.10;8.70;;;;;;;10.91;87.03;97514.37;108827;1270;23843;-77
2023/10/06 03:40:46;;;;;;;15.00;8.60;;;;;;;10.91;87.10;97526.15;108802;1272;23937;-76
2023/10/06 03:46:24;;;;;;;14.80;9.10;;;;;;;10.92;87.37;97521.70;105347;1303;545479;-77
2023/10/06 03:49:03;;;;;;;14.90;8.60;;;;;;;10.91;87.50;97525.35;108271;1280;22630;-77
2023/10/06 03:51:38;;;;;;;15.80;8.30;;;;;;;10.90;87.46;97523.86;108259;1281;26779;-77
2023/10/06 03:54:12;;;;;;;15.10;8.10;;;;;;;10.92;87.66;97527.95;108506;1273;130559;-77
2023/10/06 03:56:45;;;;;;;18.50;8.30;;;;;;;10.91;87.69;97531.92;108456;1271;22641;-77
2023/10/06 03:59:21;;;;;;;13.90;7.40;;;;;;;10.91;87.83;97532.77;108398;1275;156323;-77
2023/10/06 04:01:56;;;;;;;16.20;7.20;;;;;;;10.90;87.88;97528.05;108803;1270;23748;-77
2023/10/06 04:04:28;;;;;;;16.50;7.30;;;;;;;10.86;87.87;97523.94;108758;1266;95911;-77
2023/10/06 04:07:02;;;;;;;17.10;8.50;;;;;;;10.90;87.92;97529.81;108938;1271;22520;-77
2023/10/06 04:09:37;;;;;;;13.80;7.20;;;;;;;10.87;87.89;97526.28;108932;1258;24225;-77
2023/10/06 04:12:11;;;;;;;13.70;7.80;;;;;;;10.89;87.85;97536.80;108973;1272;25768;-77
2023/10/06 04:14:42;;;;;;;13.80;7.90;;;;;;;10.88;87.94;97537.80;108899;1271;40698;-77
2023/10/06 04:17:14;;;;;;;15.10;7.70;;;;;;;10.87;87.96;97538.13;108930;1271;22626;-77
2023/10/06 04:19:46;;;;;;;14.60;7.60;;;;;;;10.86;88.00;97542.58;108974;1271;22532;-77
2023/10/06 04:22:20;;;;;;;16.30;7.30;;;;;;;10.86;88.15;97550.16;108934;1271;22540;-77
2023/10/06 04:24:51;;;;;;;14.70;7.70;;;;;;;10.86;88.12;97552.55;108916;1267;50727;-77
2023/10/06 04:27:22;;;;;;;14.90;8.10;;;;;;;10.85;88.15;97554.19;108978;1266;24021;-77
2023/10/06 04:29:56;;;;;;;13.60;7.10;;;;;;;10.85;88.16;97555.30;108916;1271;22515;-77
2023/10/06 04:32:29;;;;;;;16.00;8.00;;;;;;;10.85;88.29;97556.90;108883;1271;22560;-77
2023/10/06 04:35:00;;;;;;;13.30;6.80;;;;;;;10.84;88.21;97547.82;108879;1267;42239;-77
2023/10/06 04:37:33;;;;;;;9.40;5.20;;;;;;;10.84;88.20;97546.63;108925;1271;23804;-77
2023/10/06 04:40:07;;;;;;;10.40;5.70;;;;;;;10.82;88.09;97550.48;109030;1269;22521;-77
2023/10/06 04:42:42;;;;;;;11.70;5.60;;;;;;;10.81;88.08;97550.38;109031;1263;22535;-77
2023/10/06 04:45:14;;;;;;;8.90;5.00;;;;;;;10.79;88.11;97554.20;108839;1271;27318;-77
2023/10/06 04:47:46;;;;;;;10.20;5.20;;;;;;;10.77;87.82;97562.30;108815;1272;23781;-77
2023/10/06 04:50:18;;;;;;;9.90;5.30;;;;;;;10.75;87.79;97563.45;108825;1272;23464;-77
2023/10/06 04:52:49;;;;;;;9.10;5.20;;;;;;;10.74;87.72;97570.45;108769;1265;22525;-77
2023/10/06 04:55:21;;;;;;;10.00;5.20;;;;;;;10.70;87.69;97565.65;107638;1260;1589990;-77
2023/10/06 04:57:52;;;;;;;9.30;4.90;;;;;;;10.74;87.86;97574.16;108777;1273;23752;-77
2023/10/06 05:00:28;;;;;;;9.10;5.60;;;;;;;10.74;87.78;97577.35;108758;1273;25420;-77
2023/10/06 05:02:59;;;;;;;10.30;4.80;;;;;;;10.75;87.80;97568.65;108716;1265;22540;-77
2023/10/06 05:05:35;;;;;;;7.60;5.40;;;;;;;10.76;87.87;97569.61;108820;1272;46747;-77
2023/10/06 05:08:09;;;;;;;8.50;4.70;;;;;;;10.75;87.82;97575.17;108882;1269;25399;-77
2023/10/06 05:10:43;;;;;;;11.10;5.10;;;;;;;10.75;87.84;97577.09;108919;1269;24102;-77
2023/10/06 05:13:16;;;;;;;9.80;4.90;;;;;;;10.76;87.90;97576.94;108918;1266;26875;-77
2023/10/06 05:15:50;;;;;;;7.50;4.80;;;;;;;10.81;87.84;97575.84;108904;1271;55176;-77
2023/10/06 05:18:24;;;;;;;9.00;4.90;;;;;;;10.87;87.76;97582.26;108857;1268;22507;-77
2023/10/06 05:20:58;;;;;;;10.30;5.50;;;;;;;11.02;87.90;97589.20;108891;1271;22529;-77
2023/10/06 05:23:30;;;;;;;9.00;4.90;;;;;;;11.18;87.80;97589.23;108706;1250;140008;-78
2023/10/06 05:26:04;;;;;;;5.80;4.60;;;;;;;11.46;88.19;97594.08;108875;1271;22647;-77
2023/10/06 05:28:37;;;;;;;9.10;4.80;;;;;;;11.96;88.55;97594.11;108882;1271;24076;-77
2023/10/06 05:31:10;;;;;;;6.20;4.10;;;;;;;12.43;87.96;97598.54;108904;1268;25410;-77
2023/10/06 05:33:45;;;;;;;7.90;4.60;;;;;;;12.81;87.41;97595.60;108799;1260;33575;-77
2023/10/06 05:36:17;;;;;;;8.20;4.10;;;;;;;13.20;87.14;97598.16;108893;1261;22541;-77
2023/10/06 05:38:50;;;;;;;8.90;5.00;;;;;;;13.70;86.33;97595.44;108857;1266;22514;-77
2023/10/06 05:41:21;;;;;;;9.20;4.10;;;;;;;13.81;84.19;97592.52;108993;1271;22714;-77
2023/10/06 05:43:59;;;;;;;7.70;4.00;;;;;;;13.83;83.27;97597.52;108758;1272;112262;-77
2023/10/06 05:46:31;;;;;;;5.50;3.30;;;;;;;13.73;82.21;97600.27;108747;1268;23127;-77
2023/10/06 05:49:08;;;;;;;11.90;3.80;;;;;;;13.56;81.78;97602.38;108798;1273;23838;-77
2023/10/06 05:51:39;;;;;;;8.90;3.90;;;;;;;13.46;81.66;97606.71;108798;1273;23983;-77
2023/10/06 05:54:21;;;;;;;9.70;3.80;;;;;;;13.50;81.92;97605.43;108660;1273;176510;-77
2023/10/06 05:56:54;;;;;;;9.00;3.70;;;;;;;13.73;82.41;97603.42;108731;1269;22862;-77
2023/10/06 05:59:29;;;;;;;6.00;3.50;;;;;;;13.85;81.27;97601.70;108776;1273;24204;-77
2023/10/06 06:02:04;;;;;;;5.80;3.20;;;;;;;13.88;80.97;97605.26;108731;1269;22524;-78
2023/10/06 06:04:40;;;;;;;6.10;3.10;;;;;;;13.87;80.27;97608.67;108706;1270;78420;-77
2023/10/06 06:07:18;;;;;;;5.20;2.80;;;;;;;13.90;79.88;97611.54;108729;1267;22530;-77
2023/10/06 06:09:51;;;;;;;7.60;2.70;;;;;;;13.93;79.73;97615.68;108789;1272;22501;-77
2023/10/06 06:12:24;;;;;;;7.10;2.80;;;;;;;14.18;79.58;97624.18;108779;1273;22561;-77
2023/10/06 06:14:56;;;;;;;4.10;2.40;;;;;;;14.42;79.02;97626.66;108708;1260;48160;-77
2023/10/06 06:17:28;;;;;;;6.00;2.60;;;;;;;14.75;78.66;97627.28;108758;1267;23512;-77
2023/10/06 06:19:59;;;;;;;5.60;2.40;;;;;;;15.04;77.93;97624.83;108758;1274;22558;-77
2023/10/06 06:22:31;;;;;;;7.30;2.10;;;;;;;15.22;77.00;97626.42;108803;1273;25257;-77
2023/10/06 06:25:03;;;;;;;7.90;2.50;;;;;;;15.45;76.52;97632.31;108723;1273;36112;-77
2023/10/06 06:27:34;;;;;;;4.50;2.00;;;;;;;15.76;76.42;97635.37;108763;1273;22888;-77
2023/10/06 06:30:10;;;;;;;5.30;2.40;;;;;;;15.69;74.68;97636.50;108769;1266;22532;-77
2023/10/06 06:32:43;;;;;;;6.30;2.60;;;;;;;15.57;74.68;97639.09;108803;1273;22655;-77
2023/10/06 06:35:15;;;;;;;5.40;2.50;;;;;;;15.39;73.51;97637.14;108760;1262;96208;-76
2023/10/06 06:37:46;;;;;;;5.80;2.10;;;;;;;15.21;73.63;97638.51;108747;1274;22832;-76
2023/10/06 06:40:19;;;;;;;3.70;2.40;;;;;;;15.03;73.38;97632.05;108803;1268;22540;-77
2023/10/06 06:42:51;;;;;;;3.70;2.20;;;;;;;14.90;73.53;97637.29;108794;1266;22527;-76
2023/10/06 06:45:24;;;;;;;5.40;2.30;;;;;;;14.83;73.57;97650.44;107248;1273;2075854;-76
2023/10/06 06:47:57;;;;;;;5.00;2.00;;;;;;;14.95;74.00;97653.80;108719;1273;24304;-76
2023/10/06 06:50:32;;;;;;;5.50;2.10;;;;;;;15.26;73.89;97662.39;108772;1273;23975;-76
2023/10/06 06:53:04;;;;;;;4.90;2.10;;;;;;;15.23;72.82;97663.80;108775;1268;22517;-76
2023/10/06 06:55:35;;;;;;;6.50;2.10;;;;;;;15.07;72.45;97666.03;108679;1273;104440;-76
2023/10/06 06:58:10;;;;;;;4.90;2.00;;;;;;;15.05;72.85;97668.95;108791;1273;25418;-76
2023/10/06 07:00:43;;;;;;;5.30;1.60;;;;;;;15.18;72.78;97669.77;108746;1270;22518;-76
2023/10/06 07:03:18;;;;;;;4.40;2.10;;;;;;;15.26;72.65;97673.77;108755;1270;22932;-76
2023/10/06 07:05:54;;;;;;;7.00;2.00;;;;;;;15.37;72.65;97685.48;104739;1271;5405792;-77
2023/10/06 07:08:27;;;;;;;4.50;1.80;;;;;;;15.54;72.44;97689.54;108771;1271;26886;-76
2023/10/06 07:10:59;;;;;;;4.90;2.00;;;;;;;15.61;72.18;97693.11;108797;1273;22758;-76
2023/10/06 07:13:33;;;;;;;4.90;2.40;;;;;;;15.68;71.54;97696.09;108758;1270;23178;-76
2023/10/06 07:16:06;;;;;;;4.60;1.80;;;;;;;15.45;70.54;97693.79;108914;1271;23858;-76
2023/10/06 07:18:37;;;;;;;4.30;1.80;;;;;;;15.26;70.83;97693.11;108906;1269;22507;-76
2023/10/06 07:21:17;;;;;;;4.40;2.10;;;;;;;15.29;71.02;97695.21;108821;1271;22832;-76
2023/10/06 07:23:54;;;;;;;4.20;2.00;;;;;;;15.34;70.86;97696.09;108840;1267;51309;-76
2023/10/06 07:26:25;;;;;;;4.40;1.60;;;;;;;15.49;71.02;97694.27;108875;1269;22520;-76
2023/10/06 07:28:59;;;;;;;5.20;1.90;;;;;;;15.49;70.03;97691.39;108854;1269;22516;-77
2023/10/06 07:31:33;;;;;;;4.70;1.70;;;;;;;15.29;69.49;97692.44;108900;1272;22603;-76
2023/10/06 07:34:05;;;;;;;5.90;1.80;;;;;;;15.32;69.69;97693.20;108695;1271;146427;-76
2023/10/06 07:36:37;;;;;;;4.60;1.40;;;;;;;15.22;69.03;97691.27;108903;1256;22510;-76
2023/10/06 07:39:20;;;;;;;5.50;1.60;;;;;;;15.27;69.14;97691.77;108839;1250;22564;-77
2023/10/06 07:41:52;;;;;;;3.40;1.40;;;;;;;15.01;68.18;97693.33;108849;1272;22521;-76
2023/10/06 07:44:27;;;;;;;4.80;1.50;;;;;;;14.96;68.68;97690.65;108806;1272;58731;-76
2023/10/06 07:47:00;;;;;;;5.70;1.80;;;;;;;15.07;68.53;97692.27;108871;1266;22666;-77
2023/10/06 07:49:34;;;;;;;5.40;1.70;;;;;;;15.19;68.68;97694.73;108813;1261;22937;-76
2023/10/06 07:52:07;;;;;;;6.70;1.60;;;;;;;15.41;68.78;97687.95;108817;1269;22524;-76
2023/10/06 07:54:42;;;;;;;3.40;1.50;;;;;;;15.60;68.34;97685.78;108782;1269;53366;-76
2023/10/06 07:57:15;;;;;;;5.50;2.00;;;;;;;15.67;67.68;97682.25;108756;1273;22661;-76
2023/10/06 07:59:49;;;;;;;3.80;1.70;;;;;;;15.61;67.20;97681.73;108747;1271;22587;-76
2023/10/06 08:02:23;;;;;;;5.00;1.70;;;;;;;15.57;67.41;97684.53;108784;1273;22533;-76
2023/10/06 08:04:56;;;;;;;4.30;1.80;;;;;;;15.59;67.17;97687.77;108725;1271;44693;-76
2023/10/06 08:07:30;;;;;;;4.80;1.80;;;;;;;15.18;66.47;97687.26;108773;1273;22937;-76
2023/10/06 08:10:03;;;;;;;6.50;1.70;;;;;;;15.06;67.37;97684.27;108723;1273;24220;-76
2023/10/06 08:12:35;;;;;;;5.50;2.00;;;;;;;15.32;68.07;97685.09;108791;1265;22554;-76
2023/10/06 08:15:09;;;;;;;4.60;1.80;;;;;;;15.65;67.95;97684.02;108790;1272;36260;-76
2023/10/06 08:17:40;;;;;;;3.50;1.70;;;;;;;15.83;67.40;97686.83;108915;1266;23228;-76
2023/10/06 08:20:15;;;;;;;5.10;1.90;;;;;;;15.65;66.48;97686.23;108914;1266;22501;-76
2023/10/06 08:22:47;;;;;;;5.10;1.60;;;;;;;15.43;66.30;97683.65;108885;1272;22542;-76
2023/10/06 08:25:23;;;;;;;3.10;1.80;;;;;;;15.15;66.46;97684.30;108810;1269;80511;-77
2023/10/06 08:27:58;;;;;;;4.70;1.90;;;;;;;14.96;66.60;97681.46;108893;1250;22511;-77
2023/10/06 08:30:32;;;;;;;6.50;2.00;;;;;;;14.69;66.47;97678.80;108836;1272;22508;-77
2023/10/06 08:33:04;;;;;;;4.80;1.70;;;;;;;14.37;66.61;97686.88;108851;1272;22520;-77
2023/10/06 08:35:37;;;;;;;7.70;1.50;;;;;;;14.09;66.86;97690.90;108850;1272;54613;-77
2023/10/06 08:38:09;;;;;;;4.50;1.70;;;;;;;13.93;67.33;97690.33;108907;1272;22909;-77
2023/10/06 08:40:44;;;;;;;6.30;1.80;;;;;;;14.17;68.18;97687.08;108901;1266;25389;-77
2023/10/06 08:43:23;;;;;;;4.10;1.80;;;;;;;14.52;68.30;97685.20;108884;1272;22513;-76
2023/10/06 08:45:59;;;;;;;3.60;1.40;;;;;;;14.80;68.17;97684.42;108699;1265;91237;-77
2023/10/06 08:48:35;;;;;;;4.70;1.60;;;;;;;15.23;68.43;97679.40;108750;1267;22542;-76
2023/10/06 08:51:14;;;;;;;4.60;1.30;;;;;;;15.75;68.33;97674.61;108741;1269;22519;-76
2023/10/06 08:53:50;;;;;;;5.60;1.40;;;;;;;16.05;67.55;97673.13;108663;1266;70115;-77
2023/10/06 08:56:24;;;;;;;4.10;1.50;;;;;;;16.22;67.30;97675.80;108820;1272;22511;-76
2023/10/06 08:58:57;;;;;;;4.30;1.50;;;;;;;16.36;66.32;97669.52;108787;1267;22569;-76
2023/10/06 09:01:31;;;;;;;3.00;1.60;;;;;;;16.27;65.83;97674.82;108785;1272;23955;-77
2023/10/06 09:04:09;;;;;;;3.20;1.30;;;;;;;15.98;65.16;97671.93;108778;1269;50330;-76
2023/10/06 09:07:12;;;;;;;5.80;1.50;;;;;;;15.50;64.42;97676.31;108876;1272;22513;-77
2023/10/06 09:09:44;;;;;;;3.60;1.20;;;;;;;15.19;65.06;97675.17;108888;1264;22572;-76
2023/10/06 09:12:31;;;;;;;2.10;1.20;;;;;;;15.14;64.65;97672.66;108887;1272;22635;-76
2023/10/06 09:15:04;;;;;;;2.60;1.00;;;;;;;14.90;64.50;97677.71;108737;1268;31985;-77
2023/10/06 09:17:36;;;;;;;6.70;1.50;;;;;;;14.95;65.16;97675.54;108761;1273;22524;-76
2023/10/06 09:20:11;;;;;;;5.20;1.50;;;;;;;15.21;65.59;97673.81;108758;1273;25418;-77
2023/10/06 09:22:50;;;;;;;6.00;1.50;;;;;;;15.33;64.89;97673.33;108743;1266;22654;-76
2023/10/06 09:25:21;;;;;;;4.30;1.30;;;;;;;15.24;64.77;97674.80;108727;1270;43443;-77
2023/10/06 09:28:04;;;;;;;2.70;1.10;;;;;;;15.26;64.88;97668.80;108770;1273;22506;-76
2023/10/06 09:30:50;;;;;;;2.80;1.10;;;;;;;15.42;65.14;97664.69;108789;1273;22518;-76
2023/10/06 09:33:27;;;;;;;4.10;1.20;;;;;;;15.62;64.50;97665.79;108749;1269;24163;-76
2023/10/06 09:36:11;;;;;;;6.30;1.80;;;;;;;15.64;64.43;97672.23;108640;1267;119922;-76
2023/10/06 09:38:45;;;;;;;3.10;1.10;;;;;;;15.81;64.35;97670.43;108705;1274;22521;-77
2023/10/06 09:41:30;;;;;;;4.10;1.60;;;;;;;15.93;63.90;97673.92;108751;1274;22532;-77
2023/10/06 09:44:10;;;;;;;5.80;1.80;;;;;;;15.87;63.09;97671.97;108752;1271;86790;-77
2023/10/06 09:46:42;;;;;;;4.30;1.40;;;;;;;15.65;63.03;97670.08;108846;1271;25246;-76
2023/10/06 09:49:18;;;;;;;3.20;1.20;;;;;;;15.52;62.98;97671.96;108866;1271;23820;-76
2023/10/06 09:51:56;;;;;;;3.50;1.40;;;;;;;15.71;63.89;97674.71;108834;1269;22548;-76
2023/10/06 09:54:29;;;;;;;3.40;1.40;;;;;;;16.14;63.99;97666.48;108805;1265;44845;-76
2023/10/06 09:57:03;;;;;;;3.80;1.20;;;;;;;16.31;63.14;97662.51;108744;1273;23832;-77
2023/10/06 09:59:35;;;;;;;2.20;1.10;;;;;;;16.41;62.67;97657.13;108757;1266;22556;-77
2023/10/06 10:02:11;;;;;;;3.20;1.40;;;;;;;16.05;61.61;97658.95;108743;1273;24247;-76
2023/10/06 10:04:46;;;;;;;4.90;1.50;;;;;;;15.62;61.77;97657.75;108683;1273;52740;-76
2023/10/06 10:07:20;;;;;;;4.70;1.60;;;;;;;15.47;62.15;97659.33;108802;1273;22506;-77
2023/10/06 10:09:54;;;;;;;4.60;1.40;;;;;;;15.38;62.06;97661.52;108761;1269;23845;-76
2023/10/06 10:12:37;;;;;;;2.80;1.50;;;;;;;15.25;61.78;97664.27;108790;1273;22549;-77
2023/10/06 10:15:22;;;;;;;2.40;1.10;;;;;;;15.30;61.92;97664.70;108775;1266;52419;-77
2023/10/06 10:18:08;;;;;;;3.10;1.20;;;;;;;15.17;61.87;97658.36;108861;1272;22537;-76
2023/10/06 10:20:41;;;;;;;4.80;1.20;;;;;;;15.04;61.64;97655.80;108914;1272;22547;-76
2023/10/06 10:23:19;;;;;;;4.10;1.10;;;;;;;15.02;62.08;97648.77;108879;1267;22586;-76
2023/10/06 10:25:51;;;;;;;2.60;0.90;;;;;;;15.29;62.53;97641.52;108764;1272;60913;-76
2023/10/06 10:28:28;;;;;;;4.40;1.20;;;;;;;15.39;62.10;97635.92;108923;1272;22544;-76
2023/10/06 10:31:05;;;;;;;2.70;1.20;;;;;;;15.48;62.03;97629.35;108880;1272;24742;-77
2023/10/06 10:33:40;;;;;;;4.30;1.50;;;;;;;15.39;61.89;97630.52;108916;1272;22523;-76
2023/10/06 10:36:31;;;;;;;3.70;1.70;;;;;;;15.40;62.40;97632.05;108786;1274;22651;-75
2023/10/06 10:39:16;;;;;;;7.60;1.70;;;;;;;15.65;62.06;97637.45;108712;1271;22644;-76
2023/10/06 10:41:49;;;;;;;2.50;1.20;;;;;;;15.84;61.70;97633.98;108740;1273;22528;-76
2023/10/06 10:44:23;;;;;;;4.40;1.50;;;;;;;16.01;61.92;97629.70;108787;1271;43355;-76
2023/10/06 10:47:02;;;;;;;4.70;1.40;;;;;;;16.26;61.79;97623.08;108880;1272;22522;-76
2023/10/06 10:49:35;;;;;;;3.00;1.40;;;;;;;16.48;61.25;97619.34;108856;1272;22522;-77
2023/10/06 10:52:09;;;;;;;3.70;1.60;;;;;;;16.26;60.15;97617.68;108876;1272;22633;-77
2023/10/06 10:54:42;;;;;;;4.10;1.50;;;;;;;15.87;59.93;97611.58;108813;1269;63459;-76
2023/10/06 10:57:21;;;;;;;2.20;1.30;;;;;;;15.51;60.24;97602.91;108904;1269;22531;-76
2023/10/06 11:00:15;;;;;;;;;;;;;;;15.23;60.71;97594.94;108905;1272;23737;-77
2023/10/06 11:03:02;;;;;;;;;;;;;;;15.02;61.19;97584.69;108927;1272;22500;-76
2023/10/06 11:05:37;;;;;;;5.40;1.90;;;;;;;15.09;61.83;97583.08;108823;1269;39466;-76
2023/10/06 11:08:10;;;;;;;3.70;2.50;;;;;;;15.06;61.88;97581.81;108888;1270;26494;-76
2023/10/06 11:10:41;;;;;;;3.20;1.50;;;;;;;15.15;62.31;97571.79;108889;1269;24006;-76
2023/10/06 11:13:18;;;;;;;3.80;1.40;;;;;;;15.43;62.16;97567.67;108871;1272;25232;-76
2023/10/06 11:15:51;;;;;;;3.30;1.50;;;;;;;15.55;61.67;97563.95;108826;1272;34627;-77
2023/10/06 11:18:23;;;;;;;5.20;1.70;;;;;;;15.45;61.25;97565.14;108887;1272;22523;-76
2023/10/06 11:20:55;;;;;;;3.90;1.50;;;;;;;15.50;61.73;97560.38;108896;1269;24042;-76
2023/10/06 11:23:43;;;;;;;4.40;1.40;;;;;;;15.65;61.40;97561.89;108897;1272;22963;-76
2023/10/06 11:26:27;;;;;;;3.90;1.00;;;;;;;15.64;61.05;97556.12;108958;1272;22604;-76
2023/10/06 11:29:00;;;;;;;3.50;1.00;;;;;;;15.70;60.51;97547.05;108926;1272;22548;-76
2023/10/06 11:31:32;;;;;;;5.60;1.20;;;;;;;15.79;60.55;97543.04;108866;1268;22561;-76
2023/10/06 11:34:04;;;;;;;4.00;1.40;;;;;;;15.97;60.59;97534.95;108851;1272;40784;-77
2023/10/06 11:36:37;;;;;;;3.30;1.20;;;;;;;16.07;60.20;97532.22;108895;1268;22518;-76
2023/10/06 11:39:12;;;;;;;4.30;1.00;;;;;;;16.15;60.13;97527.05;108910;1265;22697;-76
2023/10/06 11:41:43;;;;;;;2.00;1.00;;;;;;;16.27;60.19;97526.80;108857;1272;22833;-76
2023/10/06 11:44:16;;;;;;;3.70;1.20;;;;;;;16.52;60.53;97525.69;108845;1272;40080;-76
2023/10/06 11:46:59;;;;;;;3.00;1.20;;;;;;;16.74;59.97;97520.42;108845;1269;22524;-76
2023/10/06 11:49:31;;;;;;;4.50;1.30;;;;;;;16.91;59.82;97522.66;108878;1269;22661;-76
2023/10/06 11:52:05;;;;;;;2.50;1.00;;;;;;;17.02;59.36;97524.19;108838;1272;23832;-77
2023/10/06 11:54:41;;;;;;;4.60;1.40;;;;;;;17.16;59.42;97525.04;108805;1266;52014;-76
2023/10/06 11:57:13;;;;;;;4.30;1.50;;;;;;;17.28;59.29;97521.11;108787;1273;26552;-76
2023/10/06 11:59:54;;;;;;;3.80;1.40;;;;;;;17.29;58.65;97515.73;108798;1271;23979;-76
2023/10/06 12:02:28;;;;;;;5.30;1.30;;;;;;;17.40;59.41;97511.05;108717;1273;22528;-76
2023/10/06 12:05:14;;;;;;;2.20;1.10;;;;;;;17.59;58.85;97502.23;108720;1268;52836;-76
2023/10/06 12:07:47;;;;;;;1.70;0.90;;;;;;;17.71;58.36;97496.41;108800;1257;23296;-77